createdAt,value
2023-01-27T00:00:55.562Z,19.75
2023-01-27T00:03:22.770Z,22.38
2023-01-27T00:05:50.360Z,22.50
2023-01-27T00:08:17.850Z,20.45
2023-01-27T00:10:44.787Z,20.83
2023-01-27T00:13:28.885Z,19.73
2023-01-27T00:15:55.893Z,18.65
2023-01-27T00:18:23.943Z,18.83
2023-01-27T00:21:09.625Z,19.25
2023-01-27T00:23:55.192Z,19.38
2023-01-27T00:26:22.540Z,19.30
2023-01-27T00:28:49.498Z,18.77
2023-01-27T00:31:36.657Z,19.77
2023-01-27T00:34:09.233Z,19.48
2023-01-27T00:36:38.140Z,21.23
2023-01-27T00:39:09.288Z,19.52
2023-01-27T00:41:36.325Z,18.95
2023-01-27T00:44:04.629Z,20.98
2023-01-27T00:46:32.095Z,20.55
2023-01-27T00:48:58.978Z,19.60
2023-01-27T00:51:25.975Z,20.95
2023-01-27T00:53:52.735Z,22.42
2023-01-27T00:56:19.444Z,20.23
2023-01-27T00:58:46.620Z,20.25
2023-01-27T01:01:16.568Z,18.73
2023-01-27T01:03:44.639Z,20.67
2023-01-27T01:06:14.417Z,19.95
2023-01-27T01:08:41.490Z,20.90
2023-01-27T01:11:13.225Z,21.08
2023-01-27T01:13:41.223Z,21.98
2023-01-27T01:16:09.845Z,21.88
2023-01-27T01:18:36.680Z,19.88
2023-01-27T01:21:03.539Z,20.95
2023-01-27T01:23:30.265Z,21.90
2023-01-27T01:25:57.834Z,20.83
2023-01-27T01:28:25.572Z,19.08
2023-01-27T01:30:52.595Z,20.63
2023-01-27T01:33:19.321Z,20.65
2023-01-27T01:35:46.104Z,20.88
2023-01-27T01:38:12.977Z,19.85
2023-01-27T01:40:44.389Z,20.77
2023-01-27T01:43:18.316Z,21.42
2023-01-27T01:45:54.057Z,20.83
2023-01-27T01:48:47.422Z,20.58
2023-01-27T01:51:31.132Z,21.83
2023-01-27T01:54:23.823Z,19.05
2023-01-27T01:56:56.062Z,21.10
2023-01-27T01:59:45.936Z,22.75
2023-01-27T02:02:15.608Z,22.40
2023-01-27T02:04:55.011Z,24.15
2023-01-27T02:07:30.746Z,24.90
2023-01-27T02:09:58.508Z,23.35
2023-01-27T02:12:25.198Z,24.52
2023-01-27T02:14:51.987Z,22.90
2023-01-27T02:17:18.818Z,24.33
2023-01-27T02:20:06.864Z,25.13
2023-01-27T02:23:07.767Z,23.35
2023-01-27T02:25:34.447Z,25.60
2023-01-27T02:28:06.554Z,27.13
2023-01-27T02:30:34.287Z,26.02
2023-01-27T02:33:01.133Z,26.42
2023-01-27T02:35:34.160Z,24.92
2023-01-27T02:38:01.085Z,26.20
2023-01-27T02:40:29.660Z,27.77
2023-01-27T02:42:57.719Z,28.02
2023-01-27T02:45:24.622Z,26.58
2023-01-27T02:47:51.659Z,28.27
2023-01-27T02:50:18.521Z,27.17
2023-01-27T02:52:45.224Z,28.50
2023-01-27T02:55:12.312Z,26.27
2023-01-27T02:57:39.122Z,27.50
2023-01-27T03:00:06.363Z,27.63
2023-01-27T03:02:33.149Z,26.80
2023-01-27T03:05:03.199Z,29.10
2023-01-27T03:07:30.023Z,29.20
2023-01-27T03:09:56.809Z,28.50
2023-01-27T03:12:23.632Z,27.27
2023-01-27T03:15:10.941Z,28.42
2023-01-27T03:17:57.128Z,30.02
2023-01-27T03:20:24.345Z,29.10
2023-01-27T03:22:51.099Z,27.17
2023-01-27T03:25:18.010Z,31.40
2023-01-27T03:27:44.930Z,29.73
2023-01-27T03:30:12.198Z,30.88
2023-01-27T03:32:38.962Z,31.10
2023-01-27T03:35:06.398Z,29.50
2023-01-27T03:37:52.014Z,32.03
2023-01-27T03:40:37.665Z,29.93
2023-01-27T03:43:23.048Z,30.30
2023-01-27T03:46:10.237Z,31.08
2023-01-27T03:48:37.065Z,30.80
2023-01-27T03:51:07.150Z,32.33
2023-01-27T03:53:34.857Z,30.85
2023-01-27T03:56:02.151Z,30.95
2023-01-27T03:58:33.950Z,32.15
2023-01-27T04:01:09.057Z,28.92
2023-01-27T04:03:54.930Z,30.90
2023-01-27T04:06:43.351Z,30.77
2023-01-27T04:09:11.558Z,30.52
2023-01-27T04:11:58.758Z,30.08
2023-01-27T04:14:34.157Z,31.00
2023-01-27T04:17:05.038Z,32.63
2023-01-27T04:19:31.868Z,32.17
2023-01-27T04:21:59.841Z,30.35
2023-01-27T04:24:26.682Z,31.60
2023-01-27T04:26:56.469Z,32.13
2023-01-27T04:29:28.525Z,32.00
2023-01-27T04:31:56.157Z,30.10
2023-01-27T04:34:23.369Z,30.65
2023-01-27T04:36:50.353Z,32.00
2023-01-27T04:39:17.444Z,33.35
2023-01-27T04:41:45.478Z,29.90
2023-01-27T04:44:13.283Z,31.58
2023-01-27T04:46:40.274Z,31.45
2023-01-27T04:49:07.971Z,31.98
2023-01-27T04:51:34.784Z,31.67
2023-01-27T04:54:03.742Z,31.48
2023-01-27T04:56:36.261Z,32.88
2023-01-27T04:59:05.778Z,30.95
2023-01-27T05:01:33.340Z,31.00
2023-01-27T05:04:00.379Z,30.65
2023-01-27T05:06:27.234Z,30.80
2023-01-27T05:08:54.297Z,32.38
2023-01-27T05:11:21.258Z,30.60
2023-01-27T05:13:48.525Z,32.58
2023-01-27T05:16:24.029Z,30.63
2023-01-27T05:18:52.498Z,34.22
2023-01-27T05:21:21.743Z,36.63
2023-01-27T05:23:49.382Z,31.70
2023-01-27T05:26:21.843Z,33.75
2023-01-27T05:28:50.126Z,30.58
2023-01-27T05:31:22.708Z,33.95
2023-01-27T05:33:51.862Z,32.38
2023-01-27T05:36:21.260Z,34.10
2023-01-27T05:38:48.413Z,33.08
2023-01-27T05:41:16.257Z,33.15
2023-01-27T05:43:44.652Z,32.72
2023-01-27T05:46:13.775Z,30.83
2023-01-27T05:48:45.861Z,31.85
2023-01-27T05:51:15.073Z,33.10
2023-01-27T05:53:42.871Z,32.03
2023-01-27T05:56:11.280Z,30.83
2023-01-27T05:58:38.650Z,30.38
2023-01-27T06:01:19.738Z,32.22
2023-01-27T06:03:47.099Z,30.67
2023-01-27T06:06:17.579Z,30.35
2023-01-27T06:08:45.783Z,32.85
2023-01-27T06:11:13.288Z,33.90
2023-01-27T06:13:40.706Z,31.65
2023-01-27T06:16:10.640Z,34.08
2023-01-27T06:18:38.285Z,33.70
2023-01-27T06:21:07.162Z,33.40
2023-01-27T06:23:34.312Z,32.58
2023-01-27T06:26:04.029Z,34.70
2023-01-27T06:28:30.927Z,34.67
2023-01-27T06:31:08.340Z,34.78
2023-01-27T06:33:38.824Z,36.42
2023-01-27T06:36:08.337Z,35.92
2023-01-27T06:38:35.582Z,36.90
2023-01-27T06:41:02.643Z,36.40
2023-01-27T06:43:29.621Z,36.38
2023-01-27T06:45:58.210Z,36.17
2023-01-27T06:48:26.117Z,36.17
2023-01-27T06:50:56.843Z,34.25
2023-01-27T06:53:24.384Z,35.33
2023-01-27T06:55:59.137Z,34.80
2023-01-27T06:58:26.518Z,36.92
2023-01-27T07:00:53.321Z,35.53
2023-01-27T07:03:20.111Z,35.63
2023-01-27T07:05:46.864Z,35.97
2023-01-27T07:08:13.563Z,36.80
2023-01-27T07:10:40.321Z,36.53
2023-01-27T07:13:08.596Z,36.03
2023-01-27T07:15:35.522Z,39.28
2023-01-27T07:18:03.163Z,37.03
2023-01-27T07:20:30.560Z,39.45
2023-01-27T07:23:01.774Z,38.90
2023-01-27T07:25:29.272Z,37.88
2023-01-27T07:27:58.368Z,37.97
2023-01-27T07:30:26.020Z,38.92
2023-01-27T07:32:54.398Z,39.30
2023-01-27T07:35:22.222Z,38.22
2023-01-27T07:37:49.070Z,38.55
2023-01-27T07:40:16.365Z,36.45
2023-01-27T07:42:43.234Z,39.80
2023-01-27T07:45:10.203Z,39.45
2023-01-27T07:47:37.022Z,38.70
2023-01-27T07:50:03.928Z,42.30
2023-01-27T07:52:36.742Z,40.70
2023-01-27T07:55:03.601Z,39.65
2023-01-27T07:57:30.743Z,36.58
2023-01-27T07:59:57.492Z,37.17
2023-01-27T08:02:27.781Z,38.42
2023-01-27T08:04:54.527Z,40.55
2023-01-27T08:07:21.350Z,34.85
2023-01-27T08:09:48.478Z,36.78
2023-01-27T08:12:15.634Z,36.58
2023-01-27T08:14:42.481Z,35.10
2023-01-27T08:17:09.210Z,34.83
2023-01-27T08:19:35.929Z,37.65
2023-01-27T08:22:02.721Z,35.03
2023-01-27T08:24:29.835Z,34.22
2023-01-27T08:26:56.834Z,37.45
2023-01-27T08:29:24.218Z,37.72
2023-01-27T08:31:50.985Z,37.40
2023-01-27T08:34:17.785Z,36.78
2023-01-27T08:36:44.880Z,34.35
2023-01-27T08:39:12.026Z,36.88
2023-01-27T08:41:39.288Z,38.67
2023-01-27T08:44:06.243Z,37.47
2023-01-27T08:46:33.065Z,40.38
2023-01-27T08:48:59.941Z,37.85
2023-01-27T08:51:26.818Z,39.38
2023-01-27T08:53:53.604Z,39.25
2023-01-27T08:56:20.444Z,39.15
2023-01-27T08:58:48.429Z,41.53
2023-01-27T09:01:16.147Z,39.85
2023-01-27T09:03:42.995Z,40.13
2023-01-27T09:06:14.290Z,41.95
2023-01-27T09:08:41.827Z,39.38
2023-01-27T09:11:16.992Z,42.70
2023-01-27T09:13:43.974Z,42.83
2023-01-27T09:16:10.711Z,42.72
2023-01-27T09:18:37.667Z,42.75
2023-01-27T09:21:06.030Z,42.05
2023-01-27T09:23:34.119Z,41.53
2023-01-27T09:26:00.959Z,42.60
2023-01-27T09:28:28.071Z,42.05
2023-01-27T09:30:58.489Z,40.60
2023-01-27T09:33:26.213Z,42.80
2023-01-27T09:36:04.213Z,43.38
2023-01-27T09:38:34.827Z,41.55
2023-01-27T09:41:38.996Z,42.83
2023-01-27T09:44:22.842Z,38.50
2023-01-27T09:47:04.321Z,42.30
2023-01-27T09:49:46.013Z,41.25
2023-01-27T09:52:46.804Z,42.03
2023-01-27T09:55:32.802Z,42.78
2023-01-27T09:58:17.645Z,40.97
2023-01-27T10:01:18.452Z,39.83
2023-01-27T10:04:12.220Z,42.60
2023-01-27T10:06:47.800Z,43.70
2023-01-27T10:09:38.561Z,42.28
2023-01-27T10:12:26.486Z,40.78
2023-01-27T10:15:08.544Z,41.42
2023-01-27T10:17:53.194Z,42.25
2023-01-27T10:20:38.307Z,42.92
2023-01-27T10:23:32.334Z,42.05
2023-01-27T10:26:18.664Z,41.45
2023-01-27T10:28:51.706Z,42.38
2023-01-27T10:31:26.931Z,42.65
2023-01-27T10:33:55.985Z,42.75
2023-01-27T10:36:28.865Z,42.35
2023-01-27T10:39:11.835Z,44.15
2023-01-27T10:42:03.261Z,40.88
2023-01-27T10:44:53.055Z,41.13
2023-01-27T10:47:38.398Z,41.13
2023-01-27T10:50:16.989Z,44.03
2023-01-27T10:52:50.172Z,43.63
2023-01-27T10:55:22.548Z,45.75
2023-01-27T10:58:00.446Z,44.13
2023-01-27T11:01:19.764Z,42.78
2023-01-27T11:03:41.255Z,46.67
2023-01-27T11:06:13.880Z,47.67
2023-01-27T11:08:44.878Z,45.03
2023-01-27T11:11:30.960Z,47.28
2023-01-27T11:14:04.681Z,46.45
2023-01-27T11:16:38.596Z,46.05
2023-01-27T11:19:28.672Z,46.00
2023-01-27T11:22:07.221Z,47.72
2023-01-27T11:24:59.314Z,45.33
2023-01-27T11:27:52.669Z,42.58
2023-01-27T11:30:26.223Z,44.13
2023-01-27T11:33:05.003Z,44.13
2023-01-27T11:35:31.821Z,44.08
2023-01-27T11:38:14.584Z,43.78
2023-01-27T11:40:43.213Z,44.88
2023-01-27T11:43:18.877Z,46.42
2023-01-27T11:45:49.150Z,48.33
2023-01-27T11:48:19.603Z,50.05
2023-01-27T11:50:47.726Z,49.47
2023-01-27T11:53:24.274Z,49.67
2023-01-27T11:55:55.694Z,50.60
2023-01-27T11:58:32.248Z,51.08
2023-01-27T12:01:04.580Z,49.28
2023-01-27T12:04:00.978Z,49.08
2023-01-27T12:06:44.308Z,49.35
2023-01-27T12:09:33.186Z,48.17
2023-01-27T12:12:11.233Z,50.90
2023-01-27T12:14:38.194Z,50.25
2023-01-27T12:17:07.464Z,48.60
2023-01-27T12:19:55.385Z,50.80
2023-01-27T12:22:33.860Z,49.30
2023-01-27T12:25:15.263Z,50.88
2023-01-27T12:27:49.717Z,49.20
2023-01-27T12:30:30.864Z,46.42
2023-01-27T12:32:58.979Z,48.13
2023-01-27T12:35:34.443Z,42.28
2023-01-27T12:38:20.450Z,42.33
2023-01-27T12:40:48.823Z,38.58
2023-01-27T12:43:18.891Z,40.40
2023-01-27T12:46:02.071Z,40.33
2023-01-27T12:48:31.356Z,36.70
2023-01-27T12:51:06.817Z,34.55
2023-01-27T12:53:33.621Z,35.35
2023-01-27T12:56:22.574Z,37.17
2023-01-27T12:58:55.252Z,34.88
2023-01-27T13:01:30.247Z,37.28
2023-01-27T13:04:05.299Z,32.75
2023-01-27T13:06:50.547Z,33.23
2023-01-27T13:09:36.664Z,34.92
2023-01-27T13:12:30.005Z,32.35
2023-01-27T13:15:14.999Z,32.15
2023-01-27T13:17:45.445Z,31.90
2023-01-27T13:20:18.208Z,27.15
2023-01-27T13:22:48.979Z,31.20
2023-01-27T13:25:21.227Z,29.92
2023-01-27T13:27:50.004Z,31.73
2023-01-27T13:30:27.353Z,29.77
2023-01-27T13:32:59.508Z,30.77
2023-01-27T13:35:31.111Z,28.10
2023-01-27T13:38:18.367Z,29.27
2023-01-27T13:40:46.615Z,28.55
2023-01-27T13:43:33.677Z,27.13
2023-01-27T13:46:23.717Z,28.23
2023-01-27T13:49:03.773Z,28.20
2023-01-27T13:51:33.191Z,28.92
2023-01-27T13:54:04.451Z,26.70
2023-01-27T13:57:06.753Z,27.88
2023-01-27T13:59:43.304Z,29.88
2023-01-27T14:02:41.095Z,29.92
2023-01-27T14:05:23.135Z,29.63
2023-01-27T14:08:03.862Z,27.65
2023-01-27T14:10:45.047Z,27.60
2023-01-27T14:13:30.659Z,28.73
2023-01-27T14:16:27.647Z,28.87
2023-01-27T14:21:41.197Z,27.85
2023-01-27T14:24:48.628Z,27.42
2023-01-27T14:27:23.338Z,26.65
2023-01-27T14:29:53.158Z,25.63
2023-01-27T14:32:55.086Z,26.10
2023-01-27T14:35:53.616Z,24.67
2023-01-27T14:38:58.398Z,25.05
2023-01-27T14:41:51.596Z,23.05
2023-01-27T14:45:06.733Z,22.35
2023-01-27T14:47:54.418Z,23.63
2023-01-27T14:50:43.530Z,24.45
2023-01-27T14:53:41.961Z,21.90
2023-01-27T14:56:26.712Z,21.90
2023-01-27T14:59:13.080Z,21.85
2023-01-27T15:02:19.988Z,24.40
2023-01-27T15:05:01.392Z,22.58
2023-01-27T15:07:58.922Z,24.83
2023-01-27T15:10:31.346Z,23.58
2023-01-27T15:13:23.873Z,23.05
2023-01-27T15:16:23.179Z,23.08
2023-01-27T15:19:07.970Z,23.83
2023-01-27T15:21:49.580Z,22.30
2023-01-27T15:24:27.196Z,23.38
2023-01-27T15:26:54.768Z,23.60
2023-01-27T15:29:27.059Z,22.40
2023-01-27T15:32:17.495Z,22.08
2023-01-27T15:34:50.937Z,21.33
2023-01-27T15:37:24.522Z,22.90
2023-01-27T15:40:05.012Z,22.42
2023-01-27T15:42:55.473Z,23.00
2023-01-27T15:45:26.734Z,23.13
2023-01-27T15:48:00.699Z,22.83
2023-01-27T15:50:31.255Z,22.85
2023-01-27T15:53:04.177Z,22.58
2023-01-27T15:55:37.080Z,22.08
2023-01-27T15:58:30.432Z,21.90
2023-01-27T16:01:00.532Z,20.67
2023-01-27T16:03:46.105Z,21.65
2023-01-27T16:06:25.873Z,23.87
2023-01-27T16:09:05.499Z,22.08
2023-01-27T16:11:32.237Z,22.35
2023-01-27T16:14:14.474Z,22.92
2023-01-27T16:17:09.968Z,22.48
2023-01-27T16:19:47.731Z,22.15
2023-01-27T16:22:19.635Z,21.83
2023-01-27T16:24:59.891Z,22.45
2023-01-27T16:27:44.263Z,24.35
2023-01-27T16:30:17.738Z,22.25
2023-01-27T16:33:12.426Z,23.88
2023-01-27T16:35:48.673Z,22.63
2023-01-27T16:38:21.354Z,23.00
2023-01-27T16:40:56.906Z,23.10
2023-01-27T16:43:30.033Z,23.67
2023-01-27T16:45:57.748Z,20.33
2023-01-27T16:48:41.881Z,22.58
2023-01-27T16:51:17.732Z,21.92
2023-01-27T16:53:48.439Z,21.15
2023-01-27T16:56:23.821Z,20.80
2023-01-27T16:58:54.331Z,20.05
2023-01-27T17:01:30.020Z,20.25
2023-01-27T17:04:13.991Z,21.13
2023-01-27T17:06:46.135Z,20.00
2023-01-27T17:09:24.469Z,19.65
2023-01-27T17:11:53.567Z,20.42
2023-01-27T17:14:30.869Z,21.02
2023-01-27T17:17:04.102Z,20.30
2023-01-27T17:19:34.325Z,21.60
2023-01-27T17:22:10.321Z,20.25
2023-01-27T17:27:07.104Z,21.02
2023-01-27T17:29:42.796Z,21.50
2023-01-27T17:32:25.938Z,21.35
2023-01-27T17:34:55.717Z,20.30
2023-01-27T17:37:23.985Z,21.17
2023-01-27T17:40:03.632Z,20.15
2023-01-27T17:42:33.064Z,20.60
2023-01-27T17:45:22.072Z,21.05
2023-01-27T17:47:49.556Z,22.85
2023-01-27T17:50:19.065Z,21.55
2023-01-27T17:52:52.583Z,22.65
2023-01-27T17:55:25.002Z,23.35
2023-01-27T17:58:02.647Z,22.60
2023-01-27T18:00:38.270Z,21.75
2023-01-27T18:03:15.736Z,23.08
2023-01-27T18:05:49.078Z,23.00
2023-01-27T18:08:35.047Z,24.27
2023-01-27T18:14:35.963Z,21.38
2023-01-27T18:17:23.706Z,23.90
2023-01-27T18:19:53.129Z,22.70
2023-01-27T18:22:21.054Z,23.83
2023-01-27T18:24:49.505Z,24.23
2023-01-27T18:27:23.266Z,24.85
2023-01-27T18:30:00.106Z,25.08
2023-01-27T18:32:35.329Z,24.48
2023-01-27T18:35:02.237Z,23.08
2023-01-27T18:37:30.398Z,22.50
2023-01-27T18:40:01.891Z,21.80
2023-01-27T18:42:30.982Z,21.73
2023-01-27T18:44:58.080Z,22.27
2023-01-27T18:47:34.314Z,23.00
2023-01-27T18:50:07.263Z,21.00
2023-01-27T18:52:34.053Z,22.58
2023-01-27T18:55:28.313Z,21.33
2023-01-27T18:57:57.538Z,23.00
2023-01-27T19:00:27.691Z,21.92
2023-01-27T19:03:00.867Z,21.85
2023-01-27T19:05:30.420Z,20.92
2023-01-27T19:07:57.825Z,21.83
2023-01-27T19:10:28.573Z,20.88
2023-01-27T19:12:58.655Z,21.30
2023-01-27T19:15:31.455Z,20.55
2023-01-27T19:18:00.397Z,21.80
2023-01-27T19:20:30.096Z,19.00
2023-01-27T19:22:58.814Z,21.35
2023-01-27T19:25:29.060Z,22.35
2023-01-27T19:27:58.252Z,23.23
2023-01-27T19:30:36.029Z,23.45
2023-01-27T19:33:18.378Z,24.75
2023-01-27T19:36:14.260Z,22.60
2023-01-27T19:38:40.979Z,22.95
2023-01-27T19:41:10.600Z,23.30
2023-01-27T19:43:37.737Z,24.48
2023-01-27T19:46:15.313Z,23.70
2023-01-27T19:48:42.799Z,22.42
2023-01-27T19:51:11.586Z,23.08
2023-01-27T19:53:38.578Z,23.05
2023-01-27T19:56:16.118Z,22.58
2023-01-27T19:58:45.920Z,20.77
2023-01-27T20:01:13.374Z,22.77
2023-01-27T20:03:40.357Z,21.58
2023-01-27T20:06:15.385Z,19.98
2023-01-27T20:08:42.235Z,20.35
2023-01-27T20:11:38.739Z,20.15
2023-01-27T20:14:12.199Z,22.10
2023-01-27T20:16:39.109Z,19.20
2023-01-27T20:19:06.233Z,21.88
2023-01-27T20:21:34.623Z,20.27
2023-01-27T20:24:02.334Z,23.33
2023-01-27T20:26:32.729Z,23.20
2023-01-27T20:29:00.073Z,22.92
2023-01-27T20:31:27.189Z,23.63
2023-01-27T20:33:54.272Z,23.38
2023-01-27T20:36:23.444Z,22.85
2023-01-27T20:38:51.368Z,22.20
2023-01-27T20:41:23.466Z,22.88
2023-01-27T20:43:55.694Z,24.02
2023-01-27T20:46:22.551Z,21.02
2023-01-27T20:48:49.273Z,24.25
2023-01-27T20:51:16.808Z,25.35
2023-01-27T20:53:47.781Z,24.02
2023-01-27T20:56:20.065Z,23.58
2023-01-27T20:58:47.667Z,25.30
2023-01-27T21:01:16.859Z,23.45
2023-01-27T21:03:44.095Z,23.25
2023-01-27T21:06:18.771Z,25.33
2023-01-27T21:08:47.634Z,23.27
2023-01-27T21:11:16.029Z,24.75
2023-01-27T21:13:43.159Z,23.17
2023-01-27T21:16:10.360Z,21.88
2023-01-27T21:18:37.446Z,23.55
2023-01-27T21:21:05.108Z,24.60
2023-01-27T21:23:33.603Z,23.90
2023-01-27T21:26:11.697Z,24.67
2023-01-27T21:28:41.418Z,24.90
2023-01-27T21:31:10.267Z,24.83
2023-01-27T21:33:38.607Z,25.65
2023-01-27T21:36:08.638Z,25.00
2023-01-27T21:38:38.920Z,26.83
2023-01-27T21:41:11.008Z,25.15
2023-01-27T21:43:56.255Z,25.85
2023-01-27T21:46:23.214Z,25.17
2023-01-27T21:48:50.082Z,25.13
2023-01-27T21:51:16.915Z,23.98
2023-01-27T21:53:43.688Z,21.65
2023-01-27T21:56:11.176Z,22.65
2023-01-27T21:58:46.035Z,23.60
2023-01-27T22:02:16.144Z,23.17
2023-01-27T22:04:43.711Z,23.50
2023-01-27T22:07:15.344Z,23.27
2023-01-27T22:09:44.590Z,23.92
2023-01-27T22:12:14.157Z,24.25
2023-01-27T22:14:40.983Z,25.02
2023-01-27T22:17:09.138Z,26.77
2023-01-27T22:19:39.309Z,25.30
2023-01-27T22:22:08.227Z,25.05
2023-01-27T22:25:03.666Z,24.58
2023-01-27T22:33:32.117Z,24.85
2023-01-27T22:36:02.559Z,25.50
2023-01-27T22:38:29.432Z,24.05
2023-01-27T22:40:57.981Z,24.13
2023-01-27T22:43:27.600Z,23.48
2023-01-27T22:45:54.388Z,23.25
2023-01-27T22:48:21.205Z,21.88
2023-01-27T22:50:47.911Z,21.92
2023-01-27T22:53:14.869Z,21.67
2023-01-27T22:55:41.560Z,23.45
2023-01-27T22:58:08.859Z,24.45
2023-01-27T23:00:36.065Z,23.83
2023-01-27T23:03:03.106Z,24.75
2023-01-27T23:05:30.074Z,25.13
2023-01-27T23:07:56.837Z,23.98
2023-01-27T23:10:23.777Z,23.90
2023-01-27T23:12:50.563Z,25.27
2023-01-27T23:15:17.577Z,26.83
2023-01-27T23:17:44.506Z,25.70
2023-01-27T23:20:11.873Z,25.00
2023-01-27T23:22:38.722Z,26.70
2023-01-27T23:25:06.772Z,24.20
2023-01-27T23:27:34.114Z,25.38
2023-01-27T23:30:01.076Z,21.77
2023-01-27T23:32:27.774Z,21.83
2023-01-27T23:34:54.486Z,22.92
2023-01-27T23:37:21.334Z,25.30
2023-01-27T23:39:49.661Z,23.90
2023-01-27T23:42:17.704Z,22.00
2023-01-27T23:44:44.845Z,22.45
2023-01-27T23:47:12.535Z,22.38
2023-01-27T23:49:39.278Z,23.13
2023-01-27T23:52:06.534Z,23.95
2023-01-27T23:54:33.358Z,22.98
2023-01-27T23:57:00.622Z,22.63
2023-01-27T23:59:27.479Z,21.63
